Flight Track Log - Related Links

Times and Time Zones

All times are in EDT time to prevent confusion due to time zone crossing. See the ASA124 flight status page for this flight to view local times or setup timezone preferences in your user account.

Time Position Orientation Groundspeed Altitude Reporting Facility
EDT Latitude Longitude Course Direction KTS MPH feet Rate Location/Type
Fri 08:39:54 PM 64.7833 -147.7167 123° Southeast 240 276 3,800  Level Anchorage Center
Fri 08:40:55 PM 64.7167 -147.6167 147° Southeast 290 334 6,600 2,926 Climbing Anchorage Center
Fri 08:41:55 PM 64.6667 -147.4833 131° Southeast 280 322 9,700 3,200 Climbing Anchorage Center
Fri 08:42:55 PM 64.6167 -147.3167 125° Southeast 310 357 13,000 2,850 Climbing Anchorage Center
Fri 08:43:55 PM 64.5667 -147.1333 122° Southeast 360 414 15,400 2,678 Climbing Anchorage Center
Fri 08:44:00 PM 64.3683 -146.4488 123° Southeast  Level FlightAware
Fri 08:44:56 PM 64.5000 -146.9000 123° Southeast 400 460 18,400  Level Anchorage Center
Fri 08:45:00 PM 64.3000 -146.2083 123° Southeast  Level FlightAware
Fri 08:45:56 PM 64.4500 -146.7000 120° Southeast 410 472 20,900  Level Anchorage Center
Fri 08:46:56 PM 64.3833 -146.4500 122° Southeast 430 495 23,400 2,132 Climbing Anchorage Center
Fri 08:47:57 PM 64.3167 -146.2167 123° Southeast 440 506 25,200 1,884 Climbing Anchorage Center
Fri 08:48:57 PM 64.2333 -145.9667 127° Southeast 460 529 27,200 1,835 Climbing Anchorage Center
Fri 08:49:58 PM 64.1667 -145.7333 123° Southeast 460 529 28,900 1,537 Climbing Anchorage Center
Fri 08:50:58 PM 64.0833 -145.4667 125° Southeast 470 541 30,300 1,300 Climbing Anchorage Center
Fri 08:51:58 PM 64.0167 -145.2333 123° Southeast 480 552 31,500 1,587 Climbing Anchorage Center
Fri 08:52:59 PM 63.9333 -144.9667 125° Southeast 480 552 33,500 1,636 Climbing Anchorage Center
Fri 08:53:59 PM 63.8667 -144.7333 123° Southeast 470 541 34,800 1,400 Climbing Anchorage Center
Fri 08:54:59 PM 63.7833 -144.5000 129° Southeast 460 529 36,300 1,091 Climbing Anchorage Center
Fri 08:56:00 PM 63.7167 -144.2667 123° Southeast 450 518 37,000 347 Climbing Anchorage Center
Fri 08:57:00 PM 63.6500 -144.0333 123° Southeast 450 518 37,000  Level Anchorage Center
Fri 08:58:00 PM 63.5667 -143.8000 129° Southeast 460 529 37,000  Level Anchorage Center
Fri 08:59:01 PM 63.4667 -143.6167 141° Southeast 460 529 37,000  Level Anchorage Center
Fri 09:00:01 PM 63.3833 -143.4333 135° Southeast 460 529 37,000  Level Anchorage Center
Fri 09:01:01 PM 63.2833 -143.2333 138° Southeast 460 529 37,000  Level Anchorage Center
Fri 09:02:02 PM 63.1833 -143.0500 140° Southeast 460 529 37,000  Level Anchorage Center
Fri 09:03:02 PM 63.0833 -142.8667 140° Southeast 460 529 37,000  Level Anchorage Center
Fri 09:04:02 PM 62.9833 -142.6833 140° Southeast 460 529 37,000  Level Anchorage Center
Fri 09:05:03 PM 62.9167 -142.4500 122° Southeast 450 518 37,000  Level Anchorage Center
Fri 09:06:03 PM 62.8500 -142.2000 120° Southeast 460 529 37,000  Level Anchorage Center
Fri 09:07:03 PM 62.7833 -141.9833 124° Southeast 450 518 37,000  Level Anchorage Center
Fri 09:08:03 PM 62.7167 -141.7500 122° Southeast 460 529 37,000  Level Anchorage Center
Fri 09:09:04 PM 62.6333 -141.5167 128° Southeast 450 518 37,000  Level Anchorage Center
Fri 09:10:04 PM 62.5667 -141.2833 122° Southeast 470 541 37,000  Level Anchorage Center
Fri 09:11:04 PM 62.5000 -141.0500 122° Southeast 470 541 37,000  Level Anchorage Center
Fri 09:14:00 PM 62.3066 -140.7408 143° Southeast  Level FlightAware
Fri 09:18:37 PM 61.7500 -139.7000 145° Southeast 460 529 37,000  Level Anchorage Center
Fri 09:20:00 PM 61.6219 -139.4526 137° Southeast  Level Estimated
Fri 09:20:48 PM 61.5500 -139.3333 137° Southeast 460 529 37,000  Level Anchorage Center
Fri 09:21:00 PM 61.5945 -139.6448 144° Southeast  Level FlightAware
Fri 09:21:48 PM 61.4500 -139.1667 141° Southeast 470 541 37,000  Level Anchorage Center
Fri 09:22:00 PM 61.4921 -139.4923 145° Southeast  Level FlightAware
Fri 09:22:49 PM 61.3500 -138.9833 139° Southeast 460 529 37,000  Level Anchorage Center
Fri 09:23:00 PM 61.3895 -139.3409 145° Southeast  Level FlightAware
Fri 09:23:49 PM 61.2333 -138.8500 151° Southeast 460 529 37,000  Level Anchorage Center
Fri 09:24:49 PM 61.1333 -138.7167 147° Southeast 460 529 37,000  Level Anchorage Center
Fri 09:25:50 PM 61.0167 -138.5667 148° Southeast 460 529 37,000  Level Anchorage Center
Fri 09:26:50 PM 60.9167 -138.4333 147° Southeast 460 529 37,000  Level Anchorage Center
Fri 09:27:50 PM 60.8000 -138.2833 148° Southeast 460 529 37,000  Level Anchorage Center
Fri 09:28:50 PM 60.6833 -138.1500 151° Southeast 460 529 37,000  Level Anchorage Center
Fri 09:29:50 PM 60.5833 -138.0167 147° Southeast 450 518 37,000  Level Anchorage Center
Fri 09:30:51 PM 60.4667 -137.8833 151° Southeast 450 518 37,000  Level Anchorage Center
Fri 09:31:51 PM 60.3667 -137.7500 147° Southeast 460 529 37,000  Level Anchorage Center
Fri 09:32:52 PM 60.2500 -137.6167 150° Southeast 460 529 37,000  Level Anchorage Center
Fri 09:33:52 PM 60.1500 -137.4833 146° Southeast 460 529 37,000  Level Anchorage Center
Fri 09:34:52 PM 60.0333 -137.3500 150° Southeast 460 529 37,000  Level Anchorage Center
Fri 09:35:53 PM 59.9167 -137.2167 150° Southeast 460 529 37,000  Level Anchorage Center
Fri 09:36:53 PM 59.8167 -137.0833 146° Southeast 460 529 37,000  Level Anchorage Center
Fri 09:37:53 PM 59.7000 -136.9500 150° Southeast 460 529 37,000  Level Anchorage Center
Fri 09:38:54 PM 59.6000 -136.8167 146° Southeast 460 529 37,000  Level Anchorage Center
Fri 09:39:54 PM 59.4833 -136.7000 153° Southeast 470 541 37,000  Level Anchorage Center
Fri 09:40:54 PM 59.3667 -136.5667 150° Southeast 470 541 37,000  Level Anchorage Center
Fri 09:41:55 PM 59.2500 -136.4333 150° Southeast 460 529 37,000  Level Anchorage Center
Fri 09:42:55 PM 59.1500 -136.3000 146° Southeast 460 529 37,000  Level Anchorage Center
Fri 09:43:55 PM 59.0333 -136.1833 153° Southeast 470 541 37,000  Level Anchorage Center
Fri 09:44:56 PM 58.9167 -136.0500 149° Southeast 460 529 37,000  Level Anchorage Center
Fri 09:45:56 PM 58.8167 -135.9333 149° Southeast 470 541 37,000  Level Anchorage Center
Fri 09:46:56 PM 58.7000 -135.8167 153° Southeast 460 529 37,000  Level Anchorage Center
Fri 09:47:57 PM 58.5833 -135.6833 149° Southeast 470 541 37,000  Level Anchorage Center
Fri 09:48:57 PM 58.4667 -135.5667 152° Southeast 460 529 37,000  Level Anchorage Center
Fri 09:49:57 PM 58.3500 -135.4500 152° Southeast 470 541 37,000  Level Anchorage Center
Fri 09:50:57 PM 58.2500 -135.3167 145° Southeast 470 541 37,000  Level Anchorage Center
Fri 09:51:58 PM 58.1333 -135.1833 149° Southeast 470 541 37,000  Level Anchorage Center
Fri 09:52:58 PM 58.0333 -135.0167 139° Southeast 470 541 37,000  Level Anchorage Center
Fri 09:53:58 PM 57.9333 -134.8500 138° Southeast 480 552 37,000  Level Anchorage Center
Fri 09:54:59 PM 57.8333 -134.6833 138° Southeast 480 552 37,000  Level Anchorage Center
Fri 09:55:59 PM 57.7333 -134.5167 138° Southeast 480 552 37,000  Level Anchorage Center
Fri 09:56:59 PM 57.6333 -134.3500 138° Southeast 480 552 37,000  Level Anchorage Center
Fri 09:58:00 PM 57.5333 -134.2000 141° Southeast 480 552 37,000  Level Anchorage Center
Fri 09:59:00 PM 57.4333 -134.0333 138° Southeast 480 552 37,000  Level Anchorage Center
Fri 10:00:00 PM 57.3167 -133.8667 142° Southeast 480 552 37,000  Level Anchorage Center
Fri 10:01:01 PM 57.2167 -133.7167 141° Southeast 480 552 37,000  Level Anchorage Center
Fri 10:02:01 PM 57.1167 -133.5500 138° Southeast 480 552 37,000  Level Anchorage Center
Fri 10:03:02 PM 57.0167 -133.3833 138° Southeast 480 552 37,000  Level Anchorage Center
Fri 10:05:00 PM 56.8466 -133.1354 141° Southeast  Level FlightAware
Fri 10:12:00 PM 56.1513 -132.1147 140° Southeast  Level FlightAware
Fri 10:13:00 PM 56.0518 -131.9709 141° Southeast  Level FlightAware
Fri 10:14:00 PM 55.9521 -131.8279 141° Southeast  Level FlightAware
Fri 10:15:00 PM 55.8522 -131.6857 141° Southeast  Level FlightAware
Fri 10:16:00 PM 55.7522 -131.5441 141° Southeast  Level FlightAware
Fri 10:17:00 PM 55.6520 -131.4033 142° Southeast  Level FlightAware
Fri 10:18:00 PM 55.5517 -131.2632 142° Southeast  Level FlightAware
Fri 10:19:00 PM 55.4511 -131.1239 142° Southeast  Level FlightAware
Fri 10:20:00 PM 55.3505 -130.9852 142° Southeast  Level FlightAware
Fri 10:21:00 PM 55.2496 -130.8472 142° Southeast  Level FlightAware
Fri 10:22:00 PM 55.1487 -130.7100 142° Southeast  Level FlightAware
Fri 10:23:00 PM 55.0491 -130.5700 141° Southeast  Level FlightAware
Fri 10:24:00 PM 54.9512 -130.4267 139° Southeast  Level FlightAware
Fri 10:25:00 PM 54.8519 -130.2869 143° Southeast  Level FlightAware
Fri 10:26:00 PM 54.7499 -130.1534 143° Southeast  Level FlightAware
Fri 10:27:00 PM 54.6476 -130.0207 143° Southeast  Level FlightAware
Fri 10:28:00 PM 54.5453 -129.8886 143° Southeast  Level FlightAware
Fri 10:29:00 PM 54.4427 -129.7572 143° Southeast  Level FlightAware
Fri 10:30:00 PM 54.3401 -129.6264 143° Southeast  Level FlightAware
Fri 10:31:00 PM 54.2373 -129.4963 143° Southeast  Level FlightAware
Fri 10:32:00 PM 54.1344 -129.3668 144° Southeast  Level FlightAware
Fri 10:33:00 PM 54.0313 -129.2380 144° Southeast  Level FlightAware
Fri 10:34:00 PM 53.9281 -129.1098 144° Southeast  Level FlightAware
Fri 10:35:00 PM 53.8248 -128.9822 144° Southeast  Level FlightAware
Fri 10:36:00 PM 53.7213 -128.8553 144° Southeast  Level FlightAware
Fri 10:37:00 PM 53.6177 -128.7290 144° Southeast  Level FlightAware
Fri 10:38:00 PM 53.5139 -128.6033 144° Southeast  Level FlightAware
Fri 10:39:00 PM 53.4101 -128.4782 144° Southeast  Level FlightAware
Fri 10:40:00 PM 53.3061 -128.3538 144° Southeast  Level FlightAware
Fri 10:41:00 PM 53.2019 -128.2299 145° Southeast  Level FlightAware
Fri 10:42:00 PM 53.0977 -128.1067 145° Southeast  Level FlightAware
Fri 10:43:00 PM 52.9933 -127.9840 145° Southeast  Level FlightAware
Fri 10:44:00 PM 52.8888 -127.8619 145° Southeast  Level FlightAware
Fri 10:45:00 PM 52.7841 -127.7405 145° Southeast  Level FlightAware
Fri 10:46:00 PM 52.6794 -127.6196 145° Southeast  Level FlightAware
Fri 10:47:00 PM 52.5747 -127.4988 145° Southeast  Level FlightAware
Fri 10:48:00 PM 52.4700 -127.3783 145° Southeast  Level FlightAware
Fri 10:49:00 PM 52.3652 -127.2583 145° Southeast  Level FlightAware
Fri 10:50:00 PM 52.2603 -127.1390 145° Southeast  Level FlightAware
Fri 10:51:00 PM 52.1553 -127.0201 145° Southeast  Level FlightAware
Fri 10:52:00 PM 52.0501 -126.9019 145° Southeast  Level FlightAware
Fri 10:53:00 PM 51.9448 -126.7842 145° Southeast  Level FlightAware
Fri 10:54:00 PM 51.8394 -126.6670 146° Southeast  Level FlightAware
Fri 10:55:00 PM 51.7339 -126.5504 146° Southeast  Level FlightAware
Fri 10:56:00 PM 51.6283 -126.4344 146° Southeast  Level FlightAware
Fri 10:57:00 PM 51.5226 -126.3189 146° Southeast  Level FlightAware
Fri 10:58:00 PM 51.4167 -126.2039 146° Southeast  Level FlightAware
Fri 10:59:00 PM 51.3108 -126.0894 146° Southeast  Level FlightAware
Fri 11:00:00 PM 51.2047 -125.9755 146° Southeast  Level FlightAware
Fri 11:01:00 PM 51.0985 -125.8621 146° Southeast  Level FlightAware
Fri 11:02:00 PM 50.9922 -125.7492 146° Southeast  Level FlightAware
Fri 11:03:00 PM 50.8858 -125.6368 146° Southeast  Level FlightAware
Fri 11:04:00 PM 50.7797 -125.5242 146° Southeast  Level FlightAware
Fri 11:05:00 PM 50.6735 -125.4118 146° Southeast  Level FlightAware
Fri 11:06:00 PM 50.5672 -125.3000 146° Southeast  Level FlightAware
Fri 11:07:00 PM 50.4607 -125.1887 146° Southeast  Level FlightAware
Fri 11:08:00 PM 50.3542 -125.0779 146° Southeast  Level FlightAware
Fri 11:09:00 PM 50.2476 -124.9676 146° Southeast  Level FlightAware
Fri 11:10:00 PM 50.1409 -124.8577 147° Southeast  Level FlightAware
Fri 11:11:00 PM 50.0331 -124.7507 148° Southeast  Level FlightAware
Fri 11:12:00 PM 49.9251 -124.6444 148° Southeast  Level FlightAware
Fri 11:13:00 PM 49.8170 -124.5386 148° Southeast  Level FlightAware
Fri 11:14:00 PM 49.7088 -124.4332 148° Southeast  Level FlightAware
Fri 11:15:00 PM 49.6006 -124.3283 148° Southeast  Level FlightAware
Fri 11:16:00 PM 49.4922 -124.2239 148° Southeast  Level FlightAware
Fri 11:17:00 PM 49.3839 -124.1196 148° Southeast  Level FlightAware
Fri 11:18:00 PM 49.2755 -124.0156 148° Southeast  Level FlightAware
Fri 11:19:00 PM 49.1671 -123.9120 148° Southeast  Level FlightAware
Fri 11:20:00 PM 49.0587 -123.8086 147° Southeast  Level FlightAware
Fri 11:21:00 PM 48.9518 -123.7017 147° Southeast  Level FlightAware
Fri 11:22:00 PM 48.8450 -123.5949 147° Southeast  Level FlightAware
Fri 11:23:00 PM 48.7366 -123.4933 162° South  Level FlightAware
Fri 11:24:00 PM 48.6312 -123.3882 152° Southeast  Level FlightAware
Fri 11:25:00 PM 48.5182 -123.2979 152° Southeast  Level FlightAware
Fri 11:26:00 PM 48.4107 -123.1940 146° Southeast  Level FlightAware
Fri 11:27:00 PM 48.3042 -123.0875 146° Southeast  Level FlightAware
Fri 11:28:00 PM 48.1935 -122.9918 150° Southeast  Level FlightAware
Fri 11:29:00 PM 48.0825 -122.8968 150° Southeast  Level FlightAware
Fri 11:30:00 PM 47.9944 -122.7611 146° Southeast  Level FlightAware
Fri 11:31:00 PM 47.9154 -122.6141 127° Southeast  Level FlightAware
Fri 11:32:00 PM 47.8309 -122.4714 135° Southeast  Level FlightAware
Fri 11:33:00 PM 47.7263 -122.3649 170° South  Level FlightAware
Fri 11:34:00 PM 47.6002 -122.3418 161° South  Level FlightAware
Fri 11:35:00 PM 47.4744 -122.3103 170° South  Level FlightAware
Fri 11:36:00 PM 47.4499 -122.3118 170° South  Level Estimated
Fri 11:37:00 PM 47.4499 -122.3118 170° South  Level Estimated
Fri 11:38:00 PM 47.4499 -122.3118 170° South  Level Estimated
Fri 11:39:00 PM 47.4499 -122.3118 170° South  Level Estimated
Fri 11:40:00 PM 47.4499 -122.3118 170° South  Level Estimated
Fri 11:41:00 PM 47.4499 -122.3118 170° South  Level Estimated
Fri 11:42:00 PM 47.4499 -122.3118 170° South  Level Estimated
Fri 11:43:00 PM 47.4499 -122.3118 170° South  Level Estimated

Login

Don't have an account? Register now (free) for customized features, flight alerts, and more!